GDL weather

Don Miguel Hidalgo Y Costilla International Airport
Guadalajara, Jalisco, Mexico

Public forecast

Using degrees Celsius for public forecast. Weather courtesy of forecast.io.

Current aviation weather report (METAR) for Don Miguel Hidalgo Y Costilla International Airport

Retrieved 2019/10/18 07:42 UTC (0 seconds ago):

MMGL 180742Z 00000KT 7SM -RA BKN020 OVC080 18/16 A3011 RMK 8/57/ -RAB30

Aviation forecast (TAF) for Don Miguel Hidalgo Y Costilla International Airport

Retrieved 2019/10/18 06:26 UTC (49 minutes ago):

TAF COR MMGL 180619Z 1806/1912 30005KT P6SM SCT030 BKN080 TX25/1821Z TN17/1812Z FM181800 30008KT P6SM SCT020 SCT100 FM182200 30010KT P6SM BKN020CB OVC080 TEMPO 1822/1902 3SM TSRA BKN015CB